Time;durP1;ratioP1;P1;durP2;ratioP2;P2;SDS_P1;SDS_P2;PMS_P1;PMS_P2;Temp;Humidity;BMP_temperature;BMP_pressure;BME280_temperature;BME280_humidity;BME280_pressure;Samples;Min_cycle;Max_cycle;Signal;HPM_P1;HPM_P2
2023/01/07 00:00:51;;;;;;;15.27;1.10;;;;;;;-2.21;71.85;101871.84;4944028;28;20449;-75
2023/01/07 00:03:18;;;;;;;7.43;2.35;;;;;;;-2.19;71.72;101868.56;4947660;28;20134;-75
2023/01/07 00:05:45;;;;;;;4.43;0.90;;;;;;;-2.13;71.57;101879.13;4950730;28;20047;-74
2023/01/07 00:08:12;;;;;;;3.05;1.35;;;;;;;-2.17;71.42;101882.31;4945708;28;20073;-74
2023/01/07 00:10:40;;;;;;;4.38;1.48;;;;;;;-2.12;71.65;101883.44;4950426;28;20059;-75
2023/01/07 00:13:07;;;;;;;7.25;1.63;;;;;;;-2.11;71.41;101882.63;4950563;28;20055;-75
2023/01/07 00:15:34;;;;;;;6.45;1.92;;;;;;;-2.09;71.13;101887.84;4942300;28;20054;-75
2023/01/07 00:18:01;;;;;;;4.00;1.17;;;;;;;-2.10;71.18;101881.84;4946276;28;20046;-75
2023/01/07 00:20:28;;;;;;;3.78;1.52;;;;;;;-2.09;71.20;101875.91;4945252;28;20073;-75
2023/01/07 00:22:54;;;;;;;2.65;1.17;;;;;;;-2.08;70.74;101872.56;4945600;28;21149;-74
2023/01/07 00:25:21;;;;;;;3.38;0.82;;;;;;;-2.09;71.10;101881.03;4944966;28;20061;-74
2023/01/07 00:27:50;;;;;;;6.90;2.22;;;;;;;-2.08;70.62;101872.56;4945864;28;20047;-76
2023/01/07 00:30:17;;;;;;;4.78;2.10;;;;;;;-2.09;70.79;101865.66;4948549;28;20054;-74
2023/01/07 00:32:58;;;;;;;2.63;0.77;;;;;;;-2.13;71.10;101853.53;4946145;28;20469;-75
2023/01/07 00:35:25;;;;;;;8.63;1.60;;;;;;;-2.05;70.65;101867.59;4946880;28;20054;-75
2023/01/07 00:37:54;;;;;;;6.70;1.98;;;;;;;-2.05;71.26;101867.59;4945399;28;20151;-74
2023/01/07 00:40:21;;;;;;;5.43;1.38;;;;;;;-2.04;70.96;101869.34;4942200;28;20047;-75
2023/01/07 00:43:00;;;;;;;4.43;2.63;;;;;;;-2.04;71.39;101864.22;4948642;28;20465;-75
2023/01/07 00:45:28;;;;;;;7.25;1.60;;;;;;;-2.02;71.14;101866.88;4941843;28;20806;-75
2023/01/07 00:47:56;;;;;;;4.28;0.75;;;;;;;-2.01;71.84;101865.19;4942204;28;20110;-75
2023/01/07 00:50:27;;;;;;;4.25;0.77;;;;;;;-2.01;71.55;101863.50;4946980;28;21306;-75
2023/01/07 00:52:54;;;;;;;2.35;0.98;;;;;;;-2.00;71.90;101859.25;4944926;28;20755;-75
2023/01/07 00:55:22;;;;;;;4.85;1.77;;;;;;;-2.00;71.70;101846.44;4942264;28;20051;-75
2023/01/07 00:57:50;;;;;;;7.18;2.67;;;;;;;-2.00;71.82;101849.00;4948277;28;20051;-74
2023/01/07 01:00:19;;;;;;;6.32;2.00;;;;;;;-1.99;72.32;101855.88;4950067;28;20047;-75
2023/01/07 01:02:46;;;;;;;4.15;0.88;;;;;;;-1.99;71.94;101861.00;4944256;28;20130;-74
2023/01/07 01:05:14;;;;;;;6.07;2.50;;;;;;;-1.97;72.05;101854.28;4947729;28;20134;-75
2023/01/07 01:07:41;;;;;;;5.18;1.45;;;;;;;-1.95;72.34;101847.56;4947950;28;20134;-75
2023/01/07 01:10:11;;;;;;;6.82;2.15;;;;;;;-1.95;72.56;101850.13;4942254;28;20071;-75
2023/01/07 01:12:38;;;;;;;7.60;2.03;;;;;;;-1.93;72.32;101845.97;4944873;28;20048;-75
2023/01/07 01:15:12;;;;;;;8.95;2.17;;;;;;;-1.93;71.69;101853.66;4944124;28;20425;-74
2023/01/07 01:17:40;;;;;;;3.00;0.95;;;;;;;-1.94;72.44;101851.88;4942045;28;20048;-74
2023/01/07 01:20:10;;;;;;;9.80;2.63;;;;;;;-1.93;72.25;101840.84;4947376;28;20055;-75
2023/01/07 01:22:38;;;;;;;2.58;0.60;;;;;;;-1.96;72.03;101825.34;4946791;28;20421;-75
2023/01/07 01:25:05;;;;;;;4.80;1.80;;;;;;;-2.08;72.06;101806.00;4941876;28;20054;-75
2023/01/07 01:27:32;;;;;;;5.38;1.52;;;;;;;-1.90;72.44;101830.75;4943928;28;20050;-76
2023/01/07 01:29:59;;;;;;;6.95;2.17;;;;;;;-1.92;72.13;101812.72;4944290;28;20048;-75
2023/01/07 01:32:28;;;;;;;4.57;1.77;;;;;;;-1.89;72.29;101837.63;4944048;28;20057;-75
2023/01/07 01:34:54;;;;;;;3.95;1.40;;;;;;;-1.88;72.47;101844.47;4944293;28;20126;-74
2023/01/07 01:37:21;;;;;;;3.72;0.82;;;;;;;-1.86;72.55;101837.75;4945568;28;20069;-75
2023/01/07 01:39:48;;;;;;;6.60;1.75;;;;;;;-1.92;72.32;101825.53;4945809;28;20059;-75
2023/01/07 01:42:17;;;;;;;9.50;2.80;;;;;;;-1.84;72.22;101847.28;4939924;28;20078;-75
2023/01/07 01:44:49;;;;;;;5.40;1.65;;;;;;;-1.88;72.55;101847.94;4942120;28;20061;-74
2023/01/07 01:47:25;;;;;;;5.57;1.20;;;;;;;-1.81;72.44;101837.19;4944247;28;20047;-74
2023/01/07 01:49:59;;;;;;;4.38;1.08;;;;;;;-1.79;72.73;101832.16;4943588;28;20055;-74
2023/01/07 01:52:32;;;;;;;6.80;1.95;;;;;;;-1.77;72.43;101822.84;4943659;28;20047;-74
2023/01/07 01:55:02;;;;;;;4.30;0.85;;;;;;;-1.74;72.16;101817.00;4944780;28;20047;-74
2023/01/07 01:57:33;;;;;;;8.52;1.60;;;;;;;-1.77;72.23;101817.72;4946954;28;20118;-75
2023/01/07 02:00:01;;;;;;;6.38;2.33;;;;;;;-1.72;72.62;101818.81;4944002;28;20054;-75
2023/01/07 02:02:33;;;;;;;4.43;1.50;;;;;;;-1.71;72.46;101823.13;4942590;28;20059;-75
2023/01/07 02:05:03;;;;;;;5.75;1.58;;;;;;;-1.72;72.62;101831.63;4942823;28;20047;-75
2023/01/07 02:07:30;;;;;;;4.25;1.48;;;;;;;-1.70;72.71;101826.59;4942401;28;20051;-75
2023/01/07 02:10:00;;;;;;;4.38;1.40;;;;;;;-1.69;72.73;101826.66;4941893;28;20137;-75
2023/01/07 02:12:43;;;;;;;4.18;0.65;;;;;;;-1.67;72.22;101827.59;4943244;28;20057;-75
2023/01/07 02:15:13;;;;;;;6.75;2.20;;;;;;;-1.64;72.58;101832.00;4938149;28;20052;-75
2023/01/07 02:17:51;;;;;;;9.73;1.60;;;;;;;-1.63;72.46;101828.63;4938814;28;20055;-75
2023/01/07 02:20:30;;;;;;;3.30;1.60;;;;;;;-1.62;72.19;101823.59;4944090;28;20057;-75
2023/01/07 02:23:25;;;;;;;4.22;1.30;;;;;;;-1.60;72.39;101826.22;4939912;28;20051;-75
2023/01/07 02:26:16;;;;;;;2.80;1.10;;;;;;;-1.59;72.19;101825.44;4940735;28;20044;-74
2023/01/07 02:29:30;;;;;;;3.60;1.15;;;;;;;-1.59;72.34;101833.13;4939515;28;20054;-75
2023/01/07 02:32:21;;;;;;;6.40;1.92;;;;;;;-1.59;72.34;101828.84;4938944;28;20047;-75
2023/01/07 02:35:00;;;;;;;5.10;0.90;;;;;;;-1.59;71.76;101828.84;4942423;28;20462;-74
2023/01/07 02:37:35;;;;;;;4.35;1.23;;;;;;;-1.59;71.94;101828.84;4944049;28;20059;-75
2023/01/07 02:40:10;;;;;;;2.13;0.90;;;;;;;-1.60;71.86;101821.97;4943926;28;20126;-75
2023/01/07 02:42:41;;;;;;;;;;;;;;;-1.58;71.56;101822.03;4944168;28;20134;-75
2023/01/07 02:45:18;;;;;;;5.40;1.58;;;;;;;-1.58;71.80;101830.59;4943560;28;19926;-75
2023/01/07 02:47:51;;;;;;;4.53;0.88;;;;;;;-1.56;71.69;101827.25;4943420;28;20131;-75
2023/01/07 02:50:18;;;;;;;5.13;1.50;;;;;;;-1.56;71.75;101827.25;4941299;28;20413;-75
2023/01/07 02:52:45;;;;;;;3.67;1.42;;;;;;;-1.55;72.07;101818.75;4942836;28;20417;-75
2023/01/07 02:55:15;;;;;;;5.78;2.00;;;;;;;-1.54;71.59;101810.25;4945571;28;20395;-75
2023/01/07 02:58:20;;;;;;;6.80;1.55;;;;;;;-1.55;71.91;101798.25;4937211;28;20066;-75
2023/01/07 03:01:06;;;;;;;3.88;0.90;;;;;;;-1.53;71.43;101784.72;4942609;28;20050;-75
2023/01/07 03:03:53;;;;;;;2.17;0.75;;;;;;;-1.53;71.62;101786.41;4942271;28;20062;-75
2023/01/07 03:06:36;;;;;;;4.53;1.30;;;;;;;-1.52;71.87;101778.78;4941143;28;20055;-75
2023/01/07 03:09:10;;;;;;;5.07;1.30;;;;;;;-1.57;71.81;101770.00;4939746;28;20054;-75
2023/01/07 03:11:43;;;;;;;4.63;1.35;;;;;;;-1.49;71.27;101772.91;4941056;28;20066;-75
2023/01/07 03:14:18;;;;;;;4.70;1.45;;;;;;;-1.54;71.59;101765.00;4939254;28;20051;-74
2023/01/07 03:16:51;;;;;;;7.05;1.98;;;;;;;-1.47;71.87;101773.88;4942653;28;20057;-75
2023/01/07 03:19:24;;;;;;;5.72;1.55;;;;;;;-1.46;71.46;101775.63;4943866;28;20043;-74
2023/01/07 03:21:52;;;;;;;2.90;1.23;;;;;;;-1.47;71.80;101763.63;4943011;28;20055;-74
2023/01/07 03:24:22;;;;;;;7.72;1.15;;;;;;;-1.44;71.84;101771.44;4939928;28;20043;-75
2023/01/07 03:26:52;;;;;;;2.60;1.42;;;;;;;-1.43;71.71;101774.06;4943662;28;20083;-75
2023/01/07 03:29:20;;;;;;;4.97;1.27;;;;;;;-1.46;71.65;101756.00;4942940;28;20086;-75
2023/01/07 03:31:53;;;;;;;3.90;1.73;;;;;;;-1.39;71.50;101769.97;4940361;28;20055;-75
2023/01/07 03:34:25;;;;;;;3.88;1.10;;;;;;;-1.39;71.18;101765.72;4944601;28;20055;-75
2023/01/07 03:36:56;;;;;;;6.45;1.20;;;;;;;-1.40;71.94;101747.72;4946214;28;20127;-75
2023/01/07 03:39:26;;;;;;;4.00;0.80;;;;;;;-1.40;71.78;101740.03;4945849;28;20051;-75
2023/01/07 03:44:39;;;;;;;;;;;;;;;-1.34;72.17;101763.34;4945031;28;20177;-75
2023/01/07 03:47:06;;;;;;;2.75;0.60;;;;;;;-1.32;72.24;101764.31;4947682;28;19961;-75
2023/01/07 03:49:37;;;;;;;4.03;1.33;;;;;;;-1.32;72.45;101751.50;4945846;28;20086;-75
2023/01/07 03:52:04;;;;;;;5.65;1.13;;;;;;;-1.28;71.75;101760.19;4942644;28;20048;-75
2023/01/07 03:54:30;;;;;;;3.72;0.98;;;;;;;-1.30;72.18;101749.91;4948403;28;20145;-75
2023/01/07 03:56:57;;;;;;;4.00;1.35;;;;;;;-1.27;71.74;101750.03;4946425;28;20058;-75
2023/01/07 03:59:24;;;;;;;1.52;0.98;;;;;;;-1.26;72.48;101746.66;4945329;28;20047;-72
2023/01/07 04:01:51;;;;;;;3.55;1.17;;;;;;;-1.22;71.96;101750.25;4944014;28;20049;-72
2023/01/07 04:04:18;;;;;;;3.75;1.92;;;;;;;-1.22;72.43;101738.31;4944330;28;20111;-71
2023/01/07 04:06:47;;;;;;;4.72;1.77;;;;;;;-1.20;71.98;101731.53;4942016;28;20057;-72
2023/01/07 04:09:14;;;;;;;3.90;1.70;;;;;;;-1.37;72.80;101701.72;4943205;28;20043;-72
2023/01/07 04:11:41;;;;;;;5.15;1.23;;;;;;;-1.18;72.60;101731.63;4942229;28;20058;-71
2023/01/07 04:14:08;;;;;;;7.90;1.50;;;;;;;-1.18;72.41;101734.19;4944683;28;20053;-72
2023/01/07 04:16:35;;;;;;;5.22;1.30;;;;;;;-1.15;72.39;101735.19;4944555;28;20055;-72
2023/01/07 04:19:03;;;;;;;5.85;1.52;;;;;;;-1.13;72.34;101720.75;4945879;28;20864;-72
2023/01/07 04:21:30;;;;;;;7.15;1.73;;;;;;;-1.11;72.21;101720.84;4944318;28;20129;-71
2023/01/07 04:23:58;;;;;;;11.38;1.88;;;;;;;-1.09;72.53;101710.63;4943311;28;20489;-72
2023/01/07 04:26:25;;;;;;;1.92;0.95;;;;;;;-1.18;72.49;101693.16;4941059;28;20556;-72
2023/01/07 04:28:52;;;;;;;6.63;2.75;;;;;;;-1.07;72.05;101716.72;4947449;28;20043;-71
2023/01/07 04:31:19;;;;;;;6.07;1.92;;;;;;;-1.05;72.44;101715.97;4947677;28;20057;-72
2023/01/07 04:33:46;;;;;;;2.40;0.77;;;;;;;-1.03;72.52;101708.34;4943150;28;20050;-71
2023/01/07 04:36:13;;;;;;;2.92;1.05;;;;;;;-1.02;72.91;101710.09;4942422;28;20861;-71
2023/01/07 04:38:40;;;;;;;5.15;1.95;;;;;;;-1.03;72.45;101704.06;4941986;28;20047;-72
2023/01/07 04:41:08;;;;;;;4.55;2.05;;;;;;;-1.01;73.13;101711.84;4943398;28;20058;-71
2023/01/07 04:43:35;;;;;;;11.18;2.13;;;;;;;-0.99;72.54;101715.38;4941974;28;20054;-71
2023/01/07 04:46:02;;;;;;;4.20;0.90;;;;;;;-0.97;72.73;101718.84;4946118;28;20050;-72
2023/01/07 04:48:29;;;;;;;9.02;2.28;;;;;;;-0.94;72.87;101711.28;4943773;28;20058;-71
2023/01/07 04:50:56;;;;;;;6.22;1.55;;;;;;;-0.94;73.24;101708.72;4943305;28;20070;-72
2023/01/07 04:53:23;;;;;;;6.63;1.92;;;;;;;-0.91;72.94;101711.44;4945450;28;20564;-72
2023/01/07 04:55:50;;;;;;;4.60;2.10;;;;;;;-0.90;72.74;101718.31;4941862;28;20440;-71
2023/01/07 04:58:19;;;;;;;7.85;1.58;;;;;;;-0.88;73.09;101713.25;4943466;28;20054;-72
2023/01/07 05:00:46;;;;;;;4.35;1.60;;;;;;;-0.87;72.49;101709.88;4941790;28;20043;-72
2023/01/07 05:03:13;;;;;;;0.88;0.55;;;;;;;-0.96;72.59;101687.28;4943915;28;20046;-72
2023/01/07 05:05:40;;;;;;;5.82;1.60;;;;;;;-0.88;73.12;101706.44;4941113;28;20130;-72
2023/01/07 05:08:07;;;;;;;7.10;1.27;;;;;;;-0.83;72.93;101706.63;4941602;28;20153;-72
2023/01/07 05:10:34;;;;;;;9.00;2.15;;;;;;;-0.95;72.73;101684.78;4937952;28;20066;-72
2023/01/07 05:13:04;;;;;;;5.68;1.75;;;;;;;-0.81;73.00;101700.75;4941480;28;20413;-72
2023/01/07 05:15:32;;;;;;;6.70;1.95;;;;;;;-0.85;72.93;101693.75;4938290;28;20063;-72
2023/01/07 05:17:59;;;;;;;4.78;1.92;;;;;;;-0.80;73.00;101706.75;4944290;28;20134;-71
2023/01/07 05:20:26;;;;;;;4.85;1.45;;;;;;;-0.75;73.17;101710.41;4943295;28;20052;-72
2023/01/07 05:22:53;;;;;;;4.88;1.67;;;;;;;-0.73;73.32;101704.53;4940259;28;20413;-71
2023/01/07 05:25:20;;;;;;;4.97;1.98;;;;;;;-0.74;73.55;101700.22;4940275;28;20059;-72
2023/01/07 05:27:47;;;;;;;2.70;0.65;;;;;;;-0.71;73.43;101694.34;4941558;28;20061;-72
2023/01/07 05:30:14;;;;;;;3.75;2.15;;;;;;;-0.70;73.43;101689.25;4941589;28;20126;-71
2023/01/07 05:32:42;;;;;;;7.10;1.58;;;;;;;-0.68;73.04;101686.78;4944405;28;20047;-71
2023/01/07 05:35:09;;;;;;;5.75;1.30;;;;;;;-0.67;73.57;101685.94;4944879;28;20057;-72
2023/01/07 05:37:36;;;;;;;5.85;2.40;;;;;;;-0.65;73.48;101686.03;4940617;28;20065;-72
2023/01/07 05:40:03;;;;;;;7.47;1.30;;;;;;;-0.64;73.54;101686.06;4944993;28;20055;-72
2023/01/07 05:42:30;;;;;;;7.47;1.70;;;;;;;-0.62;73.87;101681.88;4944283;28;20651;-72
2023/01/07 05:44:57;;;;;;;3.03;1.60;;;;;;;-0.60;73.24;101687.06;4946379;28;20053;-72
2023/01/07 05:47:24;;;;;;;5.78;1.38;;;;;;;-0.59;73.17;101688.84;4943232;28;20066;-72
2023/01/07 05:49:52;;;;;;;7.55;1.75;;;;;;;-0.59;72.84;101673.44;4941605;28;20058;-72
2023/01/07 05:52:19;;;;;;;2.97;0.93;;;;;;;-0.60;73.54;101680.25;4943378;28;20774;-72
2023/01/07 05:54:46;;;;;;;4.32;1.83;;;;;;;-0.61;72.97;101673.38;4942957;28;20143;-71
2023/01/07 05:57:13;;;;;;;4.75;1.63;;;;;;;-0.61;73.95;101672.50;4942457;28;20051;-72
2023/01/07 05:59:40;;;;;;;5.07;1.45;;;;;;;-0.57;73.04;101682.97;4941493;28;20051;-72
2023/01/07 06:02:07;;;;;;;3.70;0.90;;;;;;;-0.53;73.83;101692.53;4944381;28;20749;-71
2023/01/07 06:04:34;;;;;;;3.05;1.77;;;;;;;-0.50;73.75;101694.34;4940597;28;20055;-71
2023/01/07 06:07:02;;;;;;;3.10;1.00;;;;;;;-0.50;73.20;101696.91;4941877;28;20043;-71
2023/01/07 06:09:29;;;;;;;5.45;1.95;;;;;;;-0.48;73.64;101703.00;4939258;28;20053;-72
2023/01/07 06:11:57;;;;;;;4.60;1.48;;;;;;;-0.47;73.71;101702.19;4941852;28;20597;-72
2023/01/07 06:14:24;;;;;;;2.53;1.02;;;;;;;-0.46;73.88;101709.03;4937614;28;20051;-72
2023/01/07 06:16:51;;;;;;;3.03;1.38;;;;;;;-0.44;73.98;101710.00;4943482;28;20043;-72
2023/01/07 06:19:18;;;;;;;3.35;1.20;;;;;;;-0.43;73.36;101716.88;4944758;28;20043;-72
2023/01/07 06:21:45;;;;;;;8.80;2.35;;;;;;;-0.42;73.36;101721.22;4938356;28;20130;-71
2023/01/07 06:24:13;;;;;;;6.40;1.90;;;;;;;-0.40;73.32;101722.13;4938946;28;20057;-72
2023/01/07 06:26:40;;;;;;;3.90;1.50;;;;;;;-0.40;73.73;101722.13;4940460;28;20054;-72
2023/01/07 06:29:07;;;;;;;6.22;2.33;;;;;;;-0.38;73.99;101712.81;4936626;28;20472;-71
2023/01/07 06:31:34;;;;;;;5.88;2.08;;;;;;;-0.37;73.46;101713.69;4944287;28;20055;-72
2023/01/07 06:34:01;;;;;;;6.72;1.42;;;;;;;-0.37;73.62;101717.16;4941816;28;20062;-72
2023/01/07 06:36:28;;;;;;;3.90;1.50;;;;;;;-0.35;73.34;101715.50;4938102;28;20067;-73
2023/01/07 06:38:55;;;;;;;4.68;1.52;;;;;;;-0.34;73.62;101714.72;4942254;28;20417;-72
2023/01/07 06:41:23;;;;;;;3.63;1.60;;;;;;;-0.33;73.80;101711.31;4943300;28;20059;-72
2023/01/07 06:43:50;;;;;;;2.47;1.80;;;;;;;-0.31;74.07;101708.81;4943612;28;20042;-72
2023/01/07 06:46:17;;;;;;;4.70;1.95;;;;;;;-0.30;73.40;101705.44;4939754;28;20520;-71
2023/01/07 06:48:44;;;;;;;4.38;2.08;;;;;;;-0.28;74.11;101717.53;4941382;28;20050;-72
2023/01/07 06:51:11;;;;;;;3.90;1.95;;;;;;;-0.27;73.98;101718.41;4943568;28;20131;-72
2023/01/07 06:53:38;;;;;;;1.90;1.05;;;;;;;-0.29;73.75;101707.16;4944290;28;20050;-72
2023/01/07 06:56:05;;;;;;;7.03;2.20;;;;;;;-0.26;73.48;101710.75;4941746;28;20047;-72
2023/01/07 06:58:33;;;;;;;3.92;1.95;;;;;;;-0.23;73.46;101712.56;4941438;28;20139;-72
2023/01/07 07:01:04;;;;;;;5.18;1.95;;;;;;;-0.26;73.40;101705.63;4941847;28;20403;-72
2023/01/07 07:03:31;;;;;;;3.17;1.30;;;;;;;-0.20;73.86;101722.06;4940335;28;20481;-71
2023/01/07 07:05:58;;;;;;;5.03;1.35;;;;;;;-0.28;74.03;101696.97;4939633;28;20047;-72
2023/01/07 07:08:25;;;;;;;2.47;0.63;;;;;;;-0.18;73.50;101720.44;4938304;28;20047;-72
2023/01/07 07:10:51;;;;;;;6.88;1.52;;;;;;;-0.18;73.65;101720.44;4947676;28;20402;-72
2023/01/07 07:13:18;;;;;;;8.07;2.63;;;;;;;-0.16;74.05;101711.13;4951287;28;20051;-72
2023/01/07 07:15:48;;;;;;;6.72;2.95;;;;;;;-0.15;73.78;101700.03;4949528;28;20048;-72
2023/01/07 07:18:15;;;;;;;5.97;2.30;;;;;;;-0.16;74.38;101709.44;4948852;28;20493;-72
2023/01/07 07:20:42;;;;;;;5.28;2.17;;;;;;;-0.13;74.15;101713.81;4948421;28;20416;-72
2023/01/07 07:23:09;;;;;;;6.18;1.15;;;;;;;-0.18;74.42;101699.91;4948433;28;20049;-72
2023/01/07 07:25:36;;;;;;;4.47;1.75;;;;;;;-0.12;74.58;101715.56;4947768;28;20490;-72
2023/01/07 07:28:03;;;;;;;7.28;2.15;;;;;;;-0.12;74.23;101711.28;4948247;28;20047;-72
2023/01/07 07:30:30;;;;;;;6.20;2.00;;;;;;;-0.11;74.36;101717.34;4949337;28;20058;-71
2023/01/07 07:33:02;;;;;;;3.92;2.08;;;;;;;-0.11;73.77;101717.34;4944657;28;20053;-72
2023/01/07 07:35:29;;;;;;;6.93;1.88;;;;;;;-0.09;73.72;101731.09;4944963;28;20485;-72
2023/01/07 07:37:56;;;;;;;5.47;2.33;;;;;;;-0.08;74.41;101735.44;4944772;28;20057;-72
2023/01/07 07:40:23;;;;;;;9.02;2.20;;;;;;;-0.06;73.70;101731.22;4942057;28;20043;-71
2023/01/07 07:42:50;;;;;;;10.30;3.60;;;;;;;-0.05;73.67;101713.31;4946857;28;20055;-71
2023/01/07 07:45:18;;;;;;;5.75;2.33;;;;;;;-0.04;73.74;101724.44;4948605;28;20053;-71
2023/01/07 07:47:45;;;;;;;8.52;2.97;;;;;;;-0.02;73.95;101720.25;4946693;28;20047;-70
2023/01/07 07:50:13;;;;;;;7.97;2.25;;;;;;;-0.01;74.33;101714.28;4946926;28;20047;-71
2023/01/07 07:52:40;;;;;;;5.10;2.05;;;;;;;-0.02;74.22;101721.13;4944148;28;20061;-71
2023/01/07 07:55:08;;;;;;;9.38;0.85;;;;;;;0.01;74.11;101728.09;4944439;28;20051;-71
2023/01/07 07:57:35;;;;;;;2.85;1.48;;;;;;;0.00;73.77;101728.91;4947188;28;20501;-71
2023/01/07 08:00:02;;;;;;;5.80;2.38;;;;;;;0.01;74.03;101717.81;4948883;28;20040;-71
2023/01/07 08:02:29;;;;;;;4.28;1.83;;;;;;;0.03;73.77;101723.91;4948043;28;20134;-71
2023/01/07 08:04:56;;;;;;;3.88;1.80;;;;;;;0.03;74.03;101721.31;4944877;28;20055;-71
2023/01/07 08:07:24;;;;;;;3.50;2.00;;;;;;;0.05;73.40;101722.25;4948167;28;20387;-71
2023/01/07 08:09:51;;;;;;;6.45;1.60;;;;;;;-0.08;73.59;101696.91;4949996;28;20175;-71
2023/01/07 08:12:18;;;;;;;2.28;1.15;;;;;;;0.05;74.31;101717.09;4944874;28;20055;-71
2023/01/07 08:14:45;;;;;;;5.85;2.00;;;;;;;0.06;74.07;101721.44;4946513;28;20118;-71
2023/01/07 08:17:12;;;;;;;5.25;2.05;;;;;;;0.08;74.15;101713.78;4942275;28;20065;-71
2023/01/07 08:19:39;;;;;;;2.60;1.20;;;;;;;0.09;73.75;101715.56;4945176;28;20050;-71
2023/01/07 08:22:05;;;;;;;6.47;1.90;;;;;;;0.10;73.65;101718.16;4945496;28;20050;-71
2023/01/07 08:24:34;;;;;;;8.35;2.65;;;;;;;0.12;73.85;101707.97;4947951;28;20058;-72
2023/01/07 08:27:01;;;;;;;5.93;2.70;;;;;;;0.12;73.65;101706.25;4949974;28;20051;-71
2023/01/07 08:29:28;;;;;;;7.32;1.75;;;;;;;0.16;73.93;101717.53;4946735;28;21091;-70
2023/01/07 08:31:54;;;;;;;8.70;2.45;;;;;;;0.16;73.72;101717.53;4947734;28;20537;-71
2023/01/07 08:34:21;;;;;;;3.08;1.60;;;;;;;0.17;73.96;101712.47;4943733;28;20053;-70
2023/01/07 08:36:48;;;;;;;5.40;2.05;;;;;;;0.16;74.28;101723.53;4946433;28;20058;-72
2023/01/07 08:39:15;;;;;;;2.63;0.52;;;;;;;0.18;73.94;101718.47;4948515;28;20042;-71
2023/01/07 08:41:44;;;;;;;7.05;2.33;;;;;;;0.18;74.10;101721.03;4942657;28;20670;-71
2023/01/07 08:44:11;;;;;;;6.68;2.40;;;;;;;0.19;74.17;101717.66;4944207;28;20134;-72
2023/01/07 08:46:38;;;;;;;8.15;2.80;;;;;;;0.19;74.42;101721.09;4942739;28;20437;-70
2023/01/07 08:49:04;;;;;;;5.50;2.08;;;;;;;0.17;73.79;101712.47;4944444;28;20122;-71
2023/01/07 08:51:31;;;;;;;7.38;2.25;;;;;;;0.21;73.87;101701.47;4944373;28;20055;-70
2023/01/07 08:53:58;;;;;;;5.70;2.53;;;;;;;0.24;73.63;101712.69;4947372;28;20055;-70
2023/01/07 08:56:25;;;;;;;8.10;2.45;;;;;;;0.23;73.92;101706.69;4944462;28;20050;-72
2023/01/07 08:58:53;;;;;;;5.55;2.70;;;;;;;0.26;73.69;101711.03;4946944;28;20043;-72
2023/01/07 09:01:20;;;;;;;4.60;1.92;;;;;;;0.24;73.78;101705.84;4949719;28;20055;-72
2023/01/07 09:03:47;;;;;;;7.45;2.60;;;;;;;0.28;74.25;101704.28;4948560;28;20435;-72
2023/01/07 09:06:14;;;;;;;4.03;2.00;;;;;;;0.28;74.45;101702.56;4945759;28;20044;-70
2023/01/07 09:08:41;;;;;;;2.38;0.93;;;;;;;0.29;73.87;101698.34;4946917;28;20130;-72
2023/01/07 09:11:08;;;;;;;6.85;2.33;;;;;;;0.28;74.22;101694.88;4947002;28;20057;-71
2023/01/07 09:13:35;;;;;;;4.95;2.60;;;;;;;0.29;74.67;101695.78;4943192;28;20053;-72
2023/01/07 09:16:04;;;;;;;7.13;2.97;;;;;;;0.21;74.10;101691.19;4944193;28;20047;-71
2023/01/07 09:18:31;;;;;;;5.32;2.33;;;;;;;0.29;73.95;101698.34;4945038;28;20059;-71
2023/01/07 09:20:58;;;;;;;7.82;3.55;;;;;;;0.34;74.65;101699.38;4943898;28;20058;-71
2023/01/07 09:23:25;;;;;;;5.82;2.22;;;;;;;0.34;74.01;101702.84;4941869;28;20056;-71
2023/01/07 09:25:52;;;;;;;6.18;2.03;;;;;;;0.38;73.86;101701.25;4947929;28;20135;-71
2023/01/07 09:28:18;;;;;;;7.72;2.67;;;;;;;0.37;74.90;101704.63;4944115;28;20069;-71
2023/01/07 09:30:45;;;;;;;4.70;1.92;;;;;;;0.40;74.00;101697.94;4945744;28;20048;-71
2023/01/07 09:33:14;;;;;;;2.40;1.02;;;;;;;0.37;74.02;101692.66;4942353;28;20061;-70
2023/01/07 09:35:41;;;;;;;8.18;3.30;;;;;;;0.43;74.28;101697.16;4940620;28;20056;-71
2023/01/07 09:38:07;;;;;;;4.38;2.10;;;;;;;0.43;74.02;101692.03;4944768;28;20063;-71
2023/01/07 09:40:38;;;;;;;8.25;2.75;;;;;;;0.44;74.33;101688.63;4946872;28;20044;-71
2023/01/07 09:43:11;;;;;;;4.30;1.23;;;;;;;0.46;74.62;101694.72;4941376;28;20051;-71
2023/01/07 09:45:42;;;;;;;8.82;3.10;;;;;;;0.47;73.77;101693.88;4940495;28;20134;-71
2023/01/07 09:48:20;;;;;;;5.80;2.45;;;;;;;0.48;73.68;101694.75;4942475;28;20489;-71
2023/01/07 09:50:54;;;;;;;3.88;1.45;;;;;;;0.45;73.80;101691.22;4942286;28;20055;-71
2023/01/07 09:53:26;;;;;;;5.15;2.15;;;;;;;0.50;73.55;101696.56;4940217;28;20059;-71
2023/01/07 09:55:55;;;;;;;5.13;2.70;;;;;;;0.51;74.79;101697.44;4942028;28;20122;-71
2023/01/07 09:58:22;;;;;;;5.03;1.27;;;;;;;0.49;74.03;101686.25;4941264;28;20734;-71
2023/01/07 10:00:58;;;;;;;4.90;2.15;;;;;;;0.52;74.27;101697.50;4941804;28;20147;-71
2023/01/07 10:03:40;;;;;;;7.38;2.72;;;;;;;0.56;74.07;101699.34;4940709;28;20054;-71
2023/01/07 10:06:12;;;;;;;5.22;2.13;;;;;;;0.56;74.45;101683.94;4942079;28;20057;-71
2023/01/07 10:08:51;;;;;;;5.95;2.35;;;;;;;0.57;74.85;101685.69;4937070;28;20039;-71
2023/01/07 10:11:29;;;;;;;6.18;2.63;;;;;;;0.58;74.07;101702.88;4938665;28;20426;-71
2023/01/07 10:14:13;;;;;;;6.57;1.88;;;;;;;0.58;73.91;101687.44;4940042;28;20066;-71
2023/01/07 10:16:49;;;;;;;3.03;1.40;;;;;;;0.61;74.06;101678.97;4942401;28;20553;-71
2023/01/07 10:19:25;;;;;;;7.55;2.53;;;;;;;0.61;74.24;101674.69;4946452;28;20412;-71
2023/01/07 10:21:53;;;;;;;;;;;;;;;0.63;73.96;101674.75;4944482;28;20062;-70
2023/01/07 10:24:26;;;;;;;6.65;2.63;;;;;;;0.63;74.33;101672.19;4940660;28;19931;-71
2023/01/07 10:26:56;;;;;;;5.90;1.98;;;;;;;0.62;74.25;101676.44;4943991;28;20135;-71
2023/01/07 10:29:32;;;;;;;5.15;2.20;;;;;;;0.64;74.33;101679.94;4941872;28;20130;-71
2023/01/07 10:32:06;;;;;;;5.32;1.95;;;;;;;0.65;73.89;101674.00;4940416;28;20523;-71
2023/01/07 10:34:42;;;;;;;6.18;2.25;;;;;;;0.67;73.79;101679.19;4942579;28;20106;-71
2023/01/07 10:37:17;;;;;;;7.07;2.80;;;;;;;0.66;73.76;101673.16;4948883;28;20442;-71
2023/01/07 10:39:53;;;;;;;2.13;1.23;;;;;;;0.67;74.15;101674.91;4944971;28;20133;-71
2023/01/07 10:42:27;;;;;;;3.80;1.83;;;;;;;0.64;73.76;101669.66;4943076;28;20054;-71
2023/01/07 10:45:26;;;;;;;7.25;2.92;;;;;;;0.69;74.08;101666.41;4942947;28;20416;-71
2023/01/07 10:48:32;;;;;;;6.28;2.28;;;;;;;0.70;73.49;101675.84;4941020;28;20065;-72
2023/01/07 10:51:10;;;;;;;;;;;;;;;0.71;73.67;101672.44;4884473;29;20049;-71
2023/01/07 10:53:49;;;;;;;6.00;1.25;;;;;;;0.70;73.19;101678.44;4884970;29;19935;-71
2023/01/07 10:56:27;;;;;;;5.32;2.20;;;;;;;0.70;74.18;101666.44;4927233;28;20053;-71
2023/01/07 10:58:54;;;;;;;5.95;2.22;;;;;;;0.64;74.04;101656.81;4945352;28;20043;-71
2023/01/07 11:01:25;;;;;;;6.88;2.47;;;;;;;0.72;73.94;101669.94;4950428;28;20061;-71
2023/01/07 11:03:54;;;;;;;5.68;2.33;;;;;;;0.72;73.69;101658.78;4942584;28;20142;-71
2023/01/07 11:06:30;;;;;;;8.85;2.40;;;;;;;0.72;73.56;101654.53;4940747;28;20064;-71
2023/01/07 11:08:57;;;;;;;6.10;2.50;;;;;;;0.75;73.62;101659.78;4940571;28;20133;-71
2023/01/07 11:11:24;;;;;;;4.75;2.15;;;;;;;0.76;74.37;101661.50;4944350;28;20057;-71
2023/01/07 11:14:04;;;;;;;9.48;3.13;;;;;;;0.78;73.69;101664.16;4944118;28;20062;-71
2023/01/07 11:16:40;;;;;;;4.60;2.42;;;;;;;0.78;73.28;101669.28;4941250;28;20050;-71
2023/01/07 11:19:10;;;;;;;5.35;2.20;;;;;;;0.78;73.25;101670.16;4942181;28;20051;-71
2023/01/07 11:21:40;;;;;;;7.60;3.30;;;;;;;0.80;73.38;101675.38;4943895;28;20807;-71
2023/01/07 11:24:32;;;;;;;5.47;1.73;;;;;;;0.79;73.83;101678.75;4943111;28;20126;-71
2023/01/07 11:27:02;;;;;;;7.22;2.60;;;;;;;0.78;73.50;101680.44;4934169;28;20486;-71
2023/01/07 11:29:36;;;;;;;5.00;2.33;;;;;;;0.81;74.59;101671.97;4938822;28;20051;-71
2023/01/07 11:32:04;;;;;;;6.35;2.92;;;;;;;0.81;73.98;101679.69;4943054;28;20043;-71
2023/01/07 11:34:35;;;;;;;3.53;1.67;;;;;;;0.75;73.77;101653.75;4941934;28;20052;-71
2023/01/07 11:37:04;;;;;;;12.20;3.08;;;;;;;0.61;74.01;101625.84;4944178;28;20063;-71
2023/01/07 11:39:33;;;;;;;6.85;2.33;;;;;;;0.83;73.93;101654.91;4939344;28;20051;-71
2023/01/07 11:42:37;;;;;;;7.97;3.03;;;;;;;0.83;73.18;101655.78;4944488;28;20050;-71
2023/01/07 11:44:48;;;;;;;6.95;2.00;;;;;;;0.83;73.23;101642.91;4944453;28;20556;-71